sensor_id;sensor_type;location;lat;lon;timestamp;P1;durP1;ratioP1;P2;durP2;ratioP2
1460;SDS011;724;49.910;12.530;2024-01-07T00:01:28;17.40;;;16.50;;
1460;SDS011;724;49.910;12.530;2024-01-07T00:03:55;17.85;;;16.95;;
1460;SDS011;724;49.910;12.530;2024-01-07T00:06:21;17.20;;;16.30;;
1460;SDS011;724;49.910;12.530;2024-01-07T00:08:48;17.35;;;16.45;;
1460;SDS011;724;49.910;12.530;2024-01-07T00:11:15;17.55;;;16.65;;
1460;SDS011;724;49.910;12.530;2024-01-07T00:13:42;17.20;;;16.30;;
1460;SDS011;724;49.910;12.530;2024-01-07T00:16:10;17.35;;;16.45;;
1460;SDS011;724;49.910;12.530;2024-01-07T00:18:37;17.00;;;16.10;;
1460;SDS011;724;49.910;12.530;2024-01-07T00:21:04;16.90;;;16.00;;
1460;SDS011;724;49.910;12.530;2024-01-07T00:23:31;17.15;;;16.25;;
1460;SDS011;724;49.910;12.530;2024-01-07T00:25:57;17.83;;;16.92;;
1460;SDS011;724;49.910;12.530;2024-01-07T00:28:24;18.02;;;17.13;;
1460;SDS011;724;49.910;12.530;2024-01-07T00:30:51;17.40;;;16.50;;
1460;SDS011;724;49.910;12.530;2024-01-07T00:33:19;16.90;;;16.00;;
1460;SDS011;724;49.910;12.530;2024-01-07T00:35:45;17.00;;;16.10;;
1460;SDS011;724;49.910;12.530;2024-01-07T00:38:12;16.40;;;15.60;;
1460;SDS011;724;49.910;12.530;2024-01-07T00:40:39;16.73;;;15.90;;
1460;SDS011;724;49.910;12.530;2024-01-07T00:43:06;17.35;;;16.45;;
1460;SDS011;724;49.910;12.530;2024-01-07T00:45:32;17.60;;;16.70;;
1460;SDS011;724;49.910;12.530;2024-01-07T00:47:59;17.10;;;16.20;;
1460;SDS011;724;49.910;12.530;2024-01-07T00:50:28;17.20;;;16.30;;
1460;SDS011;724;49.910;12.530;2024-01-07T00:52:54;17.65;;;16.75;;
1460;SDS011;724;49.910;12.530;2024-01-07T00:55:21;17.10;;;16.20;;
1460;SDS011;724;49.910;12.530;2024-01-07T00:57:48;17.35;;;16.45;;
1460;SDS011;724;49.910;12.530;2024-01-07T01:00:16;17.00;;;16.10;;
1460;SDS011;724;49.910;12.530;2024-01-07T01:02:43;17.23;;;16.33;;
1460;SDS011;724;49.910;12.530;2024-01-07T01:05:10;17.00;;;16.10;;
1460;SDS011;724;49.910;12.530;2024-01-07T01:07:38;17.00;;;16.10;;
1460;SDS011;724;49.910;12.530;2024-01-07T01:10:05;17.05;;;16.15;;
1460;SDS011;724;49.910;12.530;2024-01-07T01:12:33;17.52;;;16.63;;
1460;SDS011;724;49.910;12.530;2024-01-07T01:15:00;17.15;;;16.25;;
1460;SDS011;724;49.910;12.530;2024-01-07T01:17:27;18.10;;;17.20;;
1460;SDS011;724;49.910;12.530;2024-01-07T01:19:53;17.40;;;16.50;;
1460;SDS011;724;49.910;12.530;2024-01-07T01:22:20;17.85;;;16.95;;
1460;SDS011;724;49.910;12.530;2024-01-07T01:24:48;18.02;;;17.13;;
1460;SDS011;724;49.910;12.530;2024-01-07T01:27:16;18.00;;;17.10;;
1460;SDS011;724;49.910;12.530;2024-01-07T01:29:43;17.52;;;16.63;;
1460;SDS011;724;49.910;12.530;2024-01-07T01:32:09;17.40;;;16.50;;
1460;SDS011;724;49.910;12.530;2024-01-07T01:34:36;17.80;;;16.90;;
1460;SDS011;724;49.910;12.530;2024-01-07T01:37:03;17.00;;;16.10;;
1460;SDS011;724;49.910;12.530;2024-01-07T01:39:30;17.73;;;16.83;;
1460;SDS011;724;49.910;12.530;2024-01-07T01:41:58;18.48;;;17.58;;
1460;SDS011;724;49.910;12.530;2024-01-07T01:44:25;18.27;;;17.38;;
1460;SDS011;724;49.910;12.530;2024-01-07T01:46:53;17.73;;;16.83;;
1460;SDS011;724;49.910;12.530;2024-01-07T01:49:20;18.30;;;17.40;;
1460;SDS011;724;49.910;12.530;2024-01-07T01:51:48;17.80;;;16.90;;
1460;SDS011;724;49.910;12.530;2024-01-07T01:54:15;18.40;;;17.50;;
1460;SDS011;724;49.910;12.530;2024-01-07T01:56:42;18.25;;;17.35;;
1460;SDS011;724;49.910;12.530;2024-01-07T01:59:11;18.00;;;17.10;;
1460;SDS011;724;49.910;12.530;2024-01-07T02:01:39;17.80;;;16.90;;
1460;SDS011;724;49.910;12.530;2024-01-07T02:04:05;17.60;;;16.70;;
1460;SDS011;724;49.910;12.530;2024-01-07T02:06:32;17.52;;;16.63;;
1460;SDS011;724;49.910;12.530;2024-01-07T02:08:59;17.80;;;16.90;;
1460;SDS011;724;49.910;12.530;2024-01-07T02:11:26;17.10;;;16.20;;
1460;SDS011;724;49.910;12.530;2024-01-07T02:13:53;18.08;;;17.17;;
1460;SDS011;724;49.910;12.530;2024-01-07T02:16:21;17.30;;;16.40;;
1460;SDS011;724;49.910;12.530;2024-01-07T02:18:48;17.23;;;16.33;;
1460;SDS011;724;49.910;12.530;2024-01-07T02:21:15;17.85;;;16.95;;
1460;SDS011;724;49.910;12.530;2024-01-07T02:23:41;18.08;;;17.17;;
1460;SDS011;724;49.910;12.530;2024-01-07T02:26:10;17.70;;;16.80;;
1460;SDS011;724;49.910;12.530;2024-01-07T02:28:36;17.75;;;16.85;;
1460;SDS011;724;49.910;12.530;2024-01-07T02:31:03;17.70;;;16.80;;
1460;SDS011;724;49.910;12.530;2024-01-07T02:33:30;18.35;;;17.45;;
1460;SDS011;724;49.910;12.530;2024-01-07T02:35:57;18.38;;;17.48;;
1460;SDS011;724;49.910;12.530;2024-01-07T02:38:23;18.05;;;17.15;;
1460;SDS011;724;49.910;12.530;2024-01-07T02:40:50;18.00;;;17.10;;
1460;SDS011;724;49.910;12.530;2024-01-07T02:43:18;17.30;;;16.40;;
1460;SDS011;724;49.910;12.530;2024-01-07T02:45:45;17.50;;;16.60;;
1460;SDS011;724;49.910;12.530;2024-01-07T02:48:12;17.60;;;16.70;;
1460;SDS011;724;49.910;12.530;2024-01-07T02:50:39;17.92;;;17.02;;
1460;SDS011;724;49.910;12.530;2024-01-07T02:53:06;17.83;;;16.92;;
1460;SDS011;724;49.910;12.530;2024-01-07T02:55:35;18.40;;;17.50;;
1460;SDS011;724;49.910;12.530;2024-01-07T02:58:02;18.00;;;17.10;;
1460;SDS011;724;49.910;12.530;2024-01-07T03:00:31;17.58;;;16.67;;
1460;SDS011;724;49.910;12.530;2024-01-07T03:02:57;18.05;;;17.15;;
1460;SDS011;724;49.910;12.530;2024-01-07T03:05:24;18.02;;;17.13;;
1460;SDS011;724;49.910;12.530;2024-01-07T03:07:54;17.65;;;16.75;;
1460;SDS011;724;49.910;12.530;2024-01-07T03:10:21;18.75;;;17.85;;
1460;SDS011;724;49.910;12.530;2024-01-07T03:12:47;18.17;;;17.27;;
1460;SDS011;724;49.910;12.530;2024-01-07T03:15:14;17.77;;;16.88;;
1460;SDS011;724;49.910;12.530;2024-01-07T03:17:42;17.60;;;16.70;;
1460;SDS011;724;49.910;12.530;2024-01-07T03:20:10;17.52;;;16.63;;
1460;SDS011;724;49.910;12.530;2024-01-07T03:22:37;17.52;;;16.63;;
1460;SDS011;724;49.910;12.530;2024-01-07T03:25:04;17.50;;;16.60;;
1460;SDS011;724;49.910;12.530;2024-01-07T03:27:33;17.95;;;17.05;;
1460;SDS011;724;49.910;12.530;2024-01-07T03:30:00;17.27;;;16.38;;
1460;SDS011;724;49.910;12.530;2024-01-07T03:32:26;17.60;;;16.70;;
1460;SDS011;724;49.910;12.530;2024-01-07T03:34:55;17.60;;;16.70;;
1460;SDS011;724;49.910;12.530;2024-01-07T03:37:22;17.83;;;16.92;;
1460;SDS011;724;49.910;12.530;2024-01-07T03:39:49;17.77;;;16.88;;
1460;SDS011;724;49.910;12.530;2024-01-07T03:42:15;17.67;;;16.77;;
1460;SDS011;724;49.910;12.530;2024-01-07T03:44:43;17.50;;;16.60;;
1460;SDS011;724;49.910;12.530;2024-01-07T03:47:10;17.40;;;16.50;;
1460;SDS011;724;49.910;12.530;2024-01-07T03:49:37;17.88;;;16.98;;
1460;SDS011;724;49.910;12.530;2024-01-07T03:52:06;18.20;;;17.30;;
1460;SDS011;724;49.910;12.530;2024-01-07T03:54:33;17.00;;;16.10;;
1460;SDS011;724;49.910;12.530;2024-01-07T03:57:00;16.83;;;15.98;;
1460;SDS011;724;49.910;12.530;2024-01-07T03:59:27;16.60;;;15.80;;
1460;SDS011;724;49.910;12.530;2024-01-07T04:01:55;17.50;;;16.60;;
1460;SDS011;724;49.910;12.530;2024-01-07T04:04:23;18.00;;;17.10;;
1460;SDS011;724;49.910;12.530;2024-01-07T04:06:50;17.45;;;16.55;;
1460;SDS011;724;49.910;12.530;2024-01-07T04:09:18;17.60;;;16.70;;
1460;SDS011;724;49.910;12.530;2024-01-07T04:11:46;17.10;;;16.20;;
1460;SDS011;724;49.910;12.530;2024-01-07T04:14:14;17.38;;;16.48;;
1460;SDS011;724;49.910;12.530;2024-01-07T04:16:41;17.35;;;16.45;;
1460;SDS011;724;49.910;12.530;2024-01-07T04:19:08;16.95;;;16.05;;
1460;SDS011;724;49.910;12.530;2024-01-07T04:21:35;17.27;;;16.38;;
1460;SDS011;724;49.910;12.530;2024-01-07T04:24:02;16.90;;;16.02;;
1460;SDS011;724;49.910;12.530;2024-01-07T04:26:30;17.45;;;16.55;;
1460;SDS011;724;49.910;12.530;2024-01-07T04:28:57;17.25;;;16.35;;
1460;SDS011;724;49.910;12.530;2024-01-07T04:31:24;17.80;;;16.90;;
1460;SDS011;724;49.910;12.530;2024-01-07T04:33:51;17.67;;;16.77;;
1460;SDS011;724;49.910;12.530;2024-01-07T04:36:17;17.30;;;16.40;;
1460;SDS011;724;49.910;12.530;2024-01-07T04:38:44;17.27;;;16.38;;
1460;SDS011;724;49.910;12.530;2024-01-07T04:41:11;16.90;;;16.00;;
1460;SDS011;724;49.910;12.530;2024-01-07T04:43:39;17.10;;;16.20;;
1460;SDS011;724;49.910;12.530;2024-01-07T04:46:08;17.30;;;16.40;;
1460;SDS011;724;49.910;12.530;2024-01-07T04:48:35;17.63;;;16.73;;
1460;SDS011;724;49.910;12.530;2024-01-07T04:51:02;17.02;;;16.13;;
1460;SDS011;724;49.910;12.530;2024-01-07T04:53:30;16.60;;;15.80;;
1460;SDS011;724;49.910;12.530;2024-01-07T04:55:56;16.80;;;15.95;;
1460;SDS011;724;49.910;12.530;2024-01-07T04:58:23;17.08;;;16.17;;
1460;SDS011;724;49.910;12.530;2024-01-07T05:00:51;17.50;;;16.60;;
1460;SDS011;724;49.910;12.530;2024-01-07T05:03:18;17.33;;;16.42;;
1460;SDS011;724;49.910;12.530;2024-01-07T05:05:46;17.60;;;16.70;;
1460;SDS011;724;49.910;12.530;2024-01-07T05:08:13;17.35;;;16.45;;
1460;SDS011;724;49.910;12.530;2024-01-07T05:10:40;17.75;;;16.85;;
1460;SDS011;724;49.910;12.530;2024-01-07T05:13:06;17.75;;;16.85;;
1460;SDS011;724;49.910;12.530;2024-01-07T05:15:33;17.85;;;16.95;;
1460;SDS011;724;49.910;12.530;2024-01-07T05:18:02;17.20;;;16.30;;
1460;SDS011;724;49.910;12.530;2024-01-07T05:20:33;17.60;;;16.70;;
1460;SDS011;724;49.910;12.530;2024-01-07T05:22:59;17.58;;;16.67;;
1460;SDS011;724;49.910;12.530;2024-01-07T05:25:26;18.00;;;17.10;;
1460;SDS011;724;49.910;12.530;2024-01-07T05:27:53;17.33;;;16.42;;
1460;SDS011;724;49.910;12.530;2024-01-07T05:30:20;17.48;;;16.58;;
1460;SDS011;724;49.910;12.530;2024-01-07T05:32:47;17.08;;;16.17;;
1460;SDS011;724;49.910;12.530;2024-01-07T05:35:15;17.52;;;16.63;;
1460;SDS011;724;49.910;12.530;2024-01-07T05:37:42;17.25;;;16.35;;
1460;SDS011;724;49.910;12.530;2024-01-07T05:40:09;17.08;;;16.17;;
1460;SDS011;724;49.910;12.530;2024-01-07T05:42:38;17.50;;;16.60;;
1460;SDS011;724;49.910;12.530;2024-01-07T05:45:04;17.50;;;16.60;;
1460;SDS011;724;49.910;12.530;2024-01-07T05:47:32;18.10;;;17.20;;
1460;SDS011;724;49.910;12.530;2024-01-07T05:49:58;18.00;;;17.10;;
1460;SDS011;724;49.910;12.530;2024-01-07T05:52:26;17.40;;;16.50;;
1460;SDS011;724;49.910;12.530;2024-01-07T05:54:53;17.60;;;16.70;;
1460;SDS011;724;49.910;12.530;2024-01-07T05:57:20;17.60;;;16.70;;
1460;SDS011;724;49.910;12.530;2024-01-07T05:59:47;17.42;;;16.52;;
1460;SDS011;724;49.910;12.530;2024-01-07T06:02:15;17.50;;;16.60;;
1460;SDS011;724;49.910;12.530;2024-01-07T06:04:42;16.52;;;15.73;;
1460;SDS011;724;49.910;12.530;2024-01-07T06:07:09;17.17;;;16.27;;
1460;SDS011;724;49.910;12.530;2024-01-07T06:09:37;16.52;;;15.73;;
1460;SDS011;724;49.910;12.530;2024-01-07T06:12:05;17.17;;;16.27;;
1460;SDS011;724;49.910;12.530;2024-01-07T06:14:31;17.10;;;16.20;;
1460;SDS011;724;49.910;12.530;2024-01-07T06:16:58;16.70;;;15.90;;
1460;SDS011;724;49.910;12.530;2024-01-07T06:19:25;16.50;;;15.70;;
1460;SDS011;724;49.910;12.530;2024-01-07T06:21:52;16.10;;;15.30;;
1460;SDS011;724;49.910;12.530;2024-01-07T06:24:19;16.23;;;15.43;;
1460;SDS011;724;49.910;12.530;2024-01-07T06:26:47;17.02;;;16.13;;
1460;SDS011;724;49.910;12.530;2024-01-07T06:29:14;16.60;;;15.80;;
1460;SDS011;724;49.910;12.530;2024-01-07T06:31:42;16.98;;;16.08;;
1460;SDS011;724;49.910;12.530;2024-01-07T06:34:10;16.65;;;15.85;;
1460;SDS011;724;49.910;12.530;2024-01-07T06:36:38;16.65;;;15.85;;
1460;SDS011;724;49.910;12.530;2024-01-07T06:39:06;16.33;;;15.52;;
1460;SDS011;724;49.910;12.530;2024-01-07T06:41:33;16.98;;;16.08;;
1460;SDS011;724;49.910;12.530;2024-01-07T06:44:01;16.50;;;15.70;;
1460;SDS011;724;49.910;12.530;2024-01-07T06:46:28;16.48;;;15.68;;
1460;SDS011;724;49.910;12.530;2024-01-07T06:48:55;16.75;;;15.93;;
1460;SDS011;724;49.910;12.530;2024-01-07T06:51:21;16.90;;;16.00;;
1460;SDS011;724;49.910;12.530;2024-01-07T06:53:48;16.10;;;15.30;;
1460;SDS011;724;49.910;12.530;2024-01-07T06:56:15;16.60;;;15.80;;
1460;SDS011;724;49.910;12.530;2024-01-07T06:58:42;16.90;;;16.00;;
1460;SDS011;724;49.910;12.530;2024-01-07T07:01:11;16.80;;;15.95;;
1460;SDS011;724;49.910;12.530;2024-01-07T07:03:39;16.65;;;15.85;;
1460;SDS011;724;49.910;12.530;2024-01-07T07:06:06;16.38;;;15.57;;
1460;SDS011;724;49.910;12.530;2024-01-07T07:08:33;17.02;;;16.13;;
1460;SDS011;724;49.910;12.530;2024-01-07T07:11:00;16.80;;;15.95;;
1460;SDS011;724;49.910;12.530;2024-01-07T07:13:27;16.30;;;15.50;;
1460;SDS011;724;49.910;12.530;2024-01-07T07:15:54;16.67;;;15.88;;
1460;SDS011;724;49.910;12.530;2024-01-07T07:18:22;17.05;;;16.15;;
1460;SDS011;724;49.910;12.530;2024-01-07T07:20:49;16.90;;;16.00;;
1460;SDS011;724;49.910;12.530;2024-01-07T07:23:16;17.00;;;16.10;;
1460;SDS011;724;49.910;12.530;2024-01-07T07:25:43;16.80;;;15.95;;
1460;SDS011;724;49.910;12.530;2024-01-07T07:28:10;16.63;;;15.82;;
1460;SDS011;724;49.910;12.530;2024-01-07T07:30:37;16.80;;;15.95;;
1460;SDS011;724;49.910;12.530;2024-01-07T07:33:04;16.90;;;16.02;;
1460;SDS011;724;49.910;12.530;2024-01-07T07:35:32;16.40;;;15.60;;
1460;SDS011;724;49.910;12.530;2024-01-07T07:37:59;16.30;;;15.50;;
1460;SDS011;724;49.910;12.530;2024-01-07T07:40:25;15.73;;;14.93;;
1460;SDS011;724;49.910;12.530;2024-01-07T07:42:52;16.65;;;15.85;;
1460;SDS011;724;49.910;12.530;2024-01-07T07:45:19;16.20;;;15.40;;
1460;SDS011;724;49.910;12.530;2024-01-07T07:47:46;16.00;;;15.20;;
1460;SDS011;724;49.910;12.530;2024-01-07T07:50:13;16.33;;;15.52;;
1460;SDS011;724;49.910;12.530;2024-01-07T07:52:42;16.38;;;15.57;;
1460;SDS011;724;49.910;12.530;2024-01-07T07:55:09;16.40;;;15.60;;
1460;SDS011;724;49.910;12.530;2024-01-07T07:57:36;15.80;;;15.00;;
1460;SDS011;724;49.910;12.530;2024-01-07T08:00:04;15.90;;;15.10;;
1460;SDS011;724;49.910;12.530;2024-01-07T08:02:31;15.82;;;15.02;;
1460;SDS011;724;49.910;12.530;2024-01-07T08:04:58;15.70;;;14.90;;
1460;SDS011;724;49.910;12.530;2024-01-07T08:07:25;16.60;;;15.80;;
1460;SDS011;724;49.910;12.530;2024-01-07T08:09:53;16.00;;;15.20;;
1460;SDS011;724;49.910;12.530;2024-01-07T08:12:22;16.00;;;15.20;;
1460;SDS011;724;49.910;12.530;2024-01-07T08:14:48;16.45;;;15.65;;
1460;SDS011;724;49.910;12.530;2024-01-07T08:17:15;16.20;;;15.40;;
1460;SDS011;724;49.910;12.530;2024-01-07T08:19:42;15.68;;;14.88;;
1460;SDS011;724;49.910;12.530;2024-01-07T08:22:09;16.35;;;15.55;;
1460;SDS011;724;49.910;12.530;2024-01-07T08:24:37;16.20;;;15.40;;
1460;SDS011;724;49.910;12.530;2024-01-07T08:27:06;15.95;;;15.15;;
1460;SDS011;724;49.910;12.530;2024-01-07T08:29:32;16.25;;;15.45;;
1460;SDS011;724;49.910;12.530;2024-01-07T08:32:00;15.90;;;15.10;;
1460;SDS011;724;49.910;12.530;2024-01-07T08:34:27;16.48;;;15.68;;
1460;SDS011;724;49.910;12.530;2024-01-07T08:36:54;15.80;;;15.00;;
1460;SDS011;724;49.910;12.530;2024-01-07T08:39:20;16.00;;;15.20;;
1460;SDS011;724;49.910;12.530;2024-01-07T08:41:47;16.20;;;15.40;;
1460;SDS011;724;49.910;12.530;2024-01-07T08:44:15;15.70;;;14.90;;
1460;SDS011;724;49.910;12.530;2024-01-07T08:46:43;16.20;;;15.40;;
1460;SDS011;724;49.910;12.530;2024-01-07T08:49:10;16.10;;;15.30;;
1460;SDS011;724;49.910;12.530;2024-01-07T08:51:38;16.25;;;15.45;;
1460;SDS011;724;49.910;12.530;2024-01-07T08:54:05;16.27;;;15.48;;
1460;SDS011;724;49.910;12.530;2024-01-07T08:56:33;16.15;;;15.35;;
1460;SDS011;724;49.910;12.530;2024-01-07T08:59:00;16.15;;;15.35;;
1460;SDS011;724;49.910;12.530;2024-01-07T09:01:30;16.05;;;15.25;;
1460;SDS011;724;49.910;12.530;2024-01-07T09:03:57;16.00;;;15.20;;
1460;SDS011;724;49.910;12.530;2024-01-07T09:06:24;16.10;;;15.30;;
1460;SDS011;724;49.910;12.530;2024-01-07T09:08:51;15.52;;;14.73;;
1460;SDS011;724;49.910;12.530;2024-01-07T09:11:18;15.77;;;14.98;;
1460;SDS011;724;49.910;12.530;2024-01-07T09:13:45;15.70;;;14.90;;
1460;SDS011;724;49.910;12.530;2024-01-07T09:16:13;15.77;;;14.98;;
1460;SDS011;724;49.910;12.530;2024-01-07T09:18:42;15.40;;;14.60;;
1460;SDS011;724;49.910;12.530;2024-01-07T09:21:09;15.60;;;14.80;;
1460;SDS011;724;49.910;12.530;2024-01-07T09:23:36;15.30;;;14.50;;
1460;SDS011;724;49.910;12.530;2024-01-07T09:26:03;15.90;;;15.10;;
1460;SDS011;724;49.910;12.530;2024-01-07T09:28:30;15.60;;;14.80;;
1460;SDS011;724;49.910;12.530;2024-01-07T09:30:58;15.90;;;15.10;;
1460;SDS011;724;49.910;12.530;2024-01-07T09:33:25;16.15;;;15.35;;
1460;SDS011;724;49.910;12.530;2024-01-07T09:35:53;16.20;;;15.40;;
1460;SDS011;724;49.910;12.530;2024-01-07T09:38:20;15.90;;;15.10;;
1460;SDS011;724;49.910;12.530;2024-01-07T09:40:46;15.80;;;15.00;;
1460;SDS011;724;49.910;12.530;2024-01-07T09:43:15;15.45;;;14.65;;
1460;SDS011;724;49.910;12.530;2024-01-07T09:45:42;15.30;;;14.50;;
1460;SDS011;724;49.910;12.530;2024-01-07T09:48:12;15.73;;;14.93;;
1460;SDS011;724;49.910;12.530;2024-01-07T09:50:40;15.88;;;15.07;;
1460;SDS011;724;49.910;12.530;2024-01-07T09:53:08;15.73;;;14.93;;
1460;SDS011;724;49.910;12.530;2024-01-07T09:55:40;15.60;;;14.80;;
1460;SDS011;724;49.910;12.530;2024-01-07T09:58:13;15.57;;;14.77;;
1460;SDS011;724;49.910;12.530;2024-01-07T10:00:40;15.45;;;14.65;;
1460;SDS011;724;49.910;12.530;2024-01-07T10:03:07;15.18;;;14.38;;
1460;SDS011;724;49.910;12.530;2024-01-07T10:05:34;15.50;;;14.70;;
1460;SDS011;724;49.910;12.530;2024-01-07T10:08:00;15.90;;;15.10;;
1460;SDS011;724;49.910;12.530;2024-01-07T10:10:29;16.17;;;15.38;;
1460;SDS011;724;49.910;12.530;2024-01-07T10:12:56;15.48;;;14.68;;
1460;SDS011;724;49.910;12.530;2024-01-07T10:15:23;15.80;;;15.00;;
1460;SDS011;724;49.910;12.530;2024-01-07T10:17:54;15.00;;;14.20;;
1460;SDS011;724;49.910;12.530;2024-01-07T10:20:21;16.15;;;15.35;;
1460;SDS011;724;49.910;12.530;2024-01-07T10:22:49;15.45;;;14.65;;
1460;SDS011;724;49.910;12.530;2024-01-07T10:25:21;15.35;;;14.55;;
1460;SDS011;724;49.910;12.530;2024-01-07T10:27:50;15.10;;;14.30;;
1460;SDS011;724;49.910;12.530;2024-01-07T10:30:17;15.68;;;14.88;;
1460;SDS011;724;49.910;12.530;2024-01-07T10:32:43;15.60;;;14.80;;
1460;SDS011;724;49.910;12.530;2024-01-07T10:35:12;15.75;;;14.95;;
1460;SDS011;724;49.910;12.530;2024-01-07T10:37:40;15.60;;;14.80;;
1460;SDS011;724;49.910;12.530;2024-01-07T10:40:08;15.35;;;14.55;;
1460;SDS011;724;49.910;12.530;2024-01-07T10:42:38;15.82;;;15.02;;
1460;SDS011;724;49.910;12.530;2024-01-07T10:45:07;15.73;;;14.93;;
1460;SDS011;724;49.910;12.530;2024-01-07T10:47:35;15.50;;;14.70;;
1460;SDS011;724;49.910;12.530;2024-01-07T10:50:06;15.63;;;14.82;;
1460;SDS011;724;49.910;12.530;2024-01-07T10:52:38;15.98;;;15.18;;
1460;SDS011;724;49.910;12.530;2024-01-07T10:55:08;15.10;;;14.30;;
1460;SDS011;724;49.910;12.530;2024-01-07T10:57:38;15.50;;;14.70;;
1460;SDS011;724;49.910;12.530;2024-01-07T11:00:13;15.77;;;14.98;;
1460;SDS011;724;49.910;12.530;2024-01-07T11:02:46;15.70;;;14.90;;
1460;SDS011;724;49.910;12.530;2024-01-07T11:05:29;15.80;;;15.00;;
1460;SDS011;724;49.910;12.530;2024-01-07T11:08:04;15.63;;;14.82;;
1460;SDS011;724;49.910;12.530;2024-01-07T11:10:35;15.70;;;14.90;;
1460;SDS011;724;49.910;12.530;2024-01-07T11:13:06;15.68;;;14.88;;
1460;SDS011;724;49.910;12.530;2024-01-07T11:15:52;16.02;;;15.23;;
1460;SDS011;724;49.910;12.530;2024-01-07T11:18:20;15.80;;;15.00;;
1460;SDS011;724;49.910;12.530;2024-01-07T11:20:47;15.60;;;14.80;;
1460;SDS011;724;49.910;12.530;2024-01-07T11:23:27;15.70;;;14.90;;
1460;SDS011;724;49.910;12.530;2024-01-07T11:25:56;15.40;;;14.60;;
1460;SDS011;724;49.910;12.530;2024-01-07T11:28:42;16.20;;;15.40;;
1460;SDS011;724;49.910;12.530;2024-01-07T11:31:11;15.30;;;14.50;;
1460;SDS011;724;49.910;12.530;2024-01-07T11:33:37;16.05;;;15.25;;
1460;SDS011;724;49.910;12.530;2024-01-07T11:36:05;15.60;;;14.80;;
1460;SDS011;724;49.910;12.530;2024-01-07T11:38:33;16.20;;;15.40;;
1460;SDS011;724;49.910;12.530;2024-01-07T11:41:02;15.30;;;14.50;;
1460;SDS011;724;49.910;12.530;2024-01-07T11:43:30;16.15;;;15.35;;
1460;SDS011;724;49.910;12.530;2024-01-07T11:45:58;16.10;;;15.30;;
1460;SDS011;724;49.910;12.530;2024-01-07T11:48:29;15.52;;;14.73;;
1460;SDS011;724;49.910;12.530;2024-01-07T11:50:55;15.50;;;14.70;;
1460;SDS011;724;49.910;12.530;2024-01-07T11:53:22;15.35;;;14.55;;
1460;SDS011;724;49.910;12.530;2024-01-07T11:55:49;15.30;;;14.50;;
1460;SDS011;724;49.910;12.530;2024-01-07T11:58:16;15.63;;;14.82;;
1460;SDS011;724;49.910;12.530;2024-01-07T12:00:43;15.60;;;14.80;;
1460;SDS011;724;49.910;12.530;2024-01-07T12:03:09;15.18;;;14.38;;
1460;SDS011;724;49.910;12.530;2024-01-07T12:05:38;15.10;;;14.30;;
1460;SDS011;724;49.910;12.530;2024-01-07T12:08:05;15.40;;;14.60;;
1460;SDS011;724;49.910;12.530;2024-01-07T12:10:32;16.17;;;15.38;;
1460;SDS011;724;49.910;12.530;2024-01-07T12:12:59;15.60;;;14.80;;
1460;SDS011;724;49.910;12.530;2024-01-07T12:15:28;15.60;;;14.80;;
1460;SDS011;724;49.910;12.530;2024-01-07T12:17:56;15.95;;;15.15;;
1460;SDS011;724;49.910;12.530;2024-01-07T12:20:23;16.08;;;15.27;;
1460;SDS011;724;49.910;12.530;2024-01-07T12:22:54;15.65;;;14.85;;
1460;SDS011;724;49.910;12.530;2024-01-07T12:25:22;15.50;;;14.70;;
1460;SDS011;724;49.910;12.530;2024-01-07T12:27:50;15.52;;;14.73;;
1460;SDS011;724;49.910;12.530;2024-01-07T12:30:19;15.80;;;15.00;;
1460;SDS011;724;49.910;12.530;2024-01-07T12:32:46;15.75;;;14.95;;
1460;SDS011;724;49.910;12.530;2024-01-07T12:35:13;15.93;;;15.13;;
1460;SDS011;724;49.910;12.530;2024-01-07T12:37:40;15.85;;;15.05;;
1460;SDS011;724;49.910;12.530;2024-01-07T12:40:10;15.60;;;14.80;;
1460;SDS011;724;49.910;12.530;2024-01-07T12:42:37;15.68;;;14.88;;
1460;SDS011;724;49.910;12.530;2024-01-07T12:45:09;16.25;;;15.45;;
1460;SDS011;724;49.910;12.530;2024-01-07T12:47:36;15.57;;;14.77;;
1460;SDS011;724;49.910;12.530;2024-01-07T12:50:04;15.75;;;14.95;;
1460;SDS011;724;49.910;12.530;2024-01-07T12:52:31;15.40;;;14.60;;
1460;SDS011;724;49.910;12.530;2024-01-07T12:54:57;16.02;;;15.23;;
1460;SDS011;724;49.910;12.530;2024-01-07T12:57:26;15.85;;;15.05;;
1460;SDS011;724;49.910;12.530;2024-01-07T12:59:53;15.70;;;14.90;;
1460;SDS011;724;49.910;12.530;2024-01-07T13:02:20;15.35;;;14.55;;
1460;SDS011;724;49.910;12.530;2024-01-07T13:04:47;15.80;;;15.00;;
1460;SDS011;724;49.910;12.530;2024-01-07T13:07:13;15.82;;;15.02;;
1460;SDS011;724;49.910;12.530;2024-01-07T13:09:40;15.45;;;14.65;;
1460;SDS011;724;49.910;12.530;2024-01-07T13:12:09;15.50;;;14.70;;
1460;SDS011;724;49.910;12.530;2024-01-07T13:14:37;15.85;;;15.05;;
1460;SDS011;724;49.910;12.530;2024-01-07T13:17:04;15.40;;;14.60;;
1460;SDS011;724;49.910;12.530;2024-01-07T13:19:33;15.57;;;14.77;;
1460;SDS011;724;49.910;12.530;2024-01-07T13:22:00;15.20;;;14.40;;
1460;SDS011;724;49.910;12.530;2024-01-07T13:24:26;15.48;;;14.68;;
1460;SDS011;724;49.910;12.530;2024-01-07T13:26:53;15.68;;;14.88;;
1460;SDS011;724;49.910;12.530;2024-01-07T13:29:20;15.30;;;14.50;;
1460;SDS011;724;49.910;12.530;2024-01-07T13:31:48;15.75;;;14.95;;
1460;SDS011;724;49.910;12.530;2024-01-07T13:34:15;15.60;;;14.80;;
1460;SDS011;724;49.910;12.530;2024-01-07T13:36:43;15.20;;;14.40;;
1460;SDS011;724;49.910;12.530;2024-01-07T13:39:09;15.35;;;14.55;;
1460;SDS011;724;49.910;12.530;2024-01-07T13:41:36;15.20;;;14.40;;
1460;SDS011;724;49.910;12.530;2024-01-07T13:44:04;15.50;;;14.70;;
1460;SDS011;724;49.910;12.530;2024-01-07T13:46:32;15.75;;;14.95;;
1460;SDS011;724;49.910;12.530;2024-01-07T13:49:00;15.55;;;14.75;;
1460;SDS011;724;49.910;12.530;2024-01-07T13:51:27;15.63;;;14.82;;
1460;SDS011;724;49.910;12.530;2024-01-07T13:53:54;16.15;;;15.35;;
1460;SDS011;724;49.910;12.530;2024-01-07T13:56:20;15.50;;;14.70;;
1460;SDS011;724;49.910;12.530;2024-01-07T13:58:47;16.02;;;15.23;;
1460;SDS011;724;49.910;12.530;2024-01-07T14:01:15;15.65;;;14.85;;
1460;SDS011;724;49.910;12.530;2024-01-07T14:03:42;15.15;;;14.35;;
1460;SDS011;724;49.910;12.530;2024-01-07T14:06:10;15.80;;;15.00;;
1460;SDS011;724;49.910;12.530;2024-01-07T14:08:37;15.90;;;15.10;;
1460;SDS011;724;49.910;12.530;2024-01-07T14:11:04;15.80;;;15.00;;
1460;SDS011;724;49.910;12.530;2024-01-07T14:13:32;15.52;;;14.73;;
1460;SDS011;724;49.910;12.530;2024-01-07T14:15:59;15.75;;;14.95;;
1460;SDS011;724;49.910;12.530;2024-01-07T14:18:25;16.00;;;15.20;;
1460;SDS011;724;49.910;12.530;2024-01-07T14:20:53;15.10;;;14.30;;
1460;SDS011;724;49.910;12.530;2024-01-07T14:23:21;15.90;;;15.10;;
1460;SDS011;724;49.910;12.530;2024-01-07T14:25:48;15.13;;;14.32;;
1460;SDS011;724;49.910;12.530;2024-01-07T14:28:14;15.65;;;14.85;;
1460;SDS011;724;49.910;12.530;2024-01-07T14:30:41;15.73;;;14.93;;
1460;SDS011;724;49.910;12.530;2024-01-07T14:33:08;15.65;;;14.85;;
1460;SDS011;724;49.910;12.530;2024-01-07T14:35:35;15.90;;;15.10;;
1460;SDS011;724;49.910;12.530;2024-01-07T14:38:02;15.70;;;14.90;;
1460;SDS011;724;49.910;12.530;2024-01-07T14:40:31;15.52;;;14.73;;
1460;SDS011;724;49.910;12.530;2024-01-07T14:42:58;15.55;;;14.75;;
1460;SDS011;724;49.910;12.530;2024-01-07T14:45:25;15.73;;;14.93;;
1460;SDS011;724;49.910;12.530;2024-01-07T14:47:53;16.00;;;15.20;;
1460;SDS011;724;49.910;12.530;2024-01-07T14:50:20;16.10;;;15.30;;